sensor_id;sensor_type;location;lat;lon;timestamp;P1;durP1;ratioP1;P2;durP2;ratioP2
18473;SDS011;30265;52.408;13.500;2023-03-14T00:05:07;2.15;;;1.40;;
18473;SDS011;30265;52.408;13.500;2023-03-14T00:15:31;2.38;;;1.40;;
18473;SDS011;30265;52.408;13.500;2023-03-14T00:25:56;2.35;;;1.50;;
18473;SDS011;30265;52.408;13.500;2023-03-14T00:36:21;4.22;;;1.52;;
18473;SDS011;30265;52.408;13.500;2023-03-14T00:46:43;2.33;;;1.48;;
18473;SDS011;30265;52.408;13.500;2023-03-14T00:57:06;1.95;;;1.30;;
18473;SDS011;30265;52.408;13.500;2023-03-14T01:07:28;1.52;;;1.25;;
18473;SDS011;30265;52.408;13.500;2023-03-14T01:17:52;1.02;;;0.93;;
18473;SDS011;30265;52.408;13.500;2023-03-14T01:28:16;1.40;;;1.02;;
18473;SDS011;30265;52.408;13.500;2023-03-14T01:38:39;2.95;;;1.38;;
18473;SDS011;30265;52.408;13.500;2023-03-14T01:49:06;2.35;;;1.45;;
18473;SDS011;30265;52.408;13.500;2023-03-14T01:59:34;1.45;;;1.20;;
18473;SDS011;30265;52.408;13.500;2023-03-14T02:09:58;1.10;;;1.00;;
18473;SDS011;30265;52.408;13.500;2023-03-14T02:20:30;2.50;;;1.17;;
18473;SDS011;30265;52.408;13.500;2023-03-14T02:30:57;1.30;;;1.08;;
18473;SDS011;30265;52.408;13.500;2023-03-14T02:41:19;1.48;;;1.13;;
18473;SDS011;30265;52.408;13.500;2023-03-14T02:51:52;1.23;;;1.13;;
18473;SDS011;30265;52.408;13.500;2023-03-14T03:02:14;1.10;;;1.00;;
18473;SDS011;30265;52.408;13.500;2023-03-14T03:12:37;3.78;;;1.20;;
18473;SDS011;30265;52.408;13.500;2023-03-14T03:22:59;2.45;;;1.20;;
18473;SDS011;30265;52.408;13.500;2023-03-14T03:33:22;1.15;;;1.00;;
18473;SDS011;30265;52.408;13.500;2023-03-14T03:43:45;4.72;;;1.38;;
18473;SDS011;30265;52.408;13.500;2023-03-14T03:54:10;1.90;;;1.50;;
18473;SDS011;30265;52.408;13.500;2023-03-14T04:04:32;1.48;;;1.17;;
18473;SDS011;30265;52.408;13.500;2023-03-14T04:14:57;2.83;;;1.33;;
18473;SDS011;30265;52.408;13.500;2023-03-14T04:25:19;3.00;;;1.30;;
18473;SDS011;30265;52.408;13.500;2023-03-14T04:35:48;1.95;;;1.10;;
18473;SDS011;30265;52.408;13.500;2023-03-14T04:46:10;1.80;;;1.35;;
18473;SDS011;30265;52.408;13.500;2023-03-14T04:56:33;1.30;;;1.10;;
18473;SDS011;30265;52.408;13.500;2023-03-14T05:06:56;2.97;;;1.13;;
18473;SDS011;30265;52.408;13.500;2023-03-14T05:17:38;2.05;;;1.10;;
18473;SDS011;30265;52.408;13.500;2023-03-14T05:28:19;4.95;;;1.35;;
18473;SDS011;30265;52.408;13.500;2023-03-14T05:39:02;1.77;;;1.25;;
18473;SDS011;30265;52.408;13.500;2023-03-14T05:49:46;3.15;;;1.40;;
18473;SDS011;30265;52.408;13.500;2023-03-14T06:00:25;2.17;;;1.25;;
18473;SDS011;30265;52.408;13.500;2023-03-14T06:11:02;3.38;;;1.30;;
18473;SDS011;30265;52.408;13.500;2023-03-14T06:21:26;1.35;;;1.17;;
18473;SDS011;30265;52.408;13.500;2023-03-14T06:31:48;2.88;;;1.20;;
18473;SDS011;30265;52.408;13.500;2023-03-14T06:42:12;2.05;;;1.30;;
18473;SDS011;30265;52.408;13.500;2023-03-14T06:52:36;3.10;;;1.25;;
18473;SDS011;30265;52.408;13.500;2023-03-14T07:03:03;2.53;;;1.23;;
18473;SDS011;30265;52.408;13.500;2023-03-14T07:13:30;3.33;;;1.33;;
18473;SDS011;30265;52.408;13.500;2023-03-14T07:24:00;1.63;;;1.25;;
18473;SDS011;30265;52.408;13.500;2023-03-14T07:34:24;4.07;;;1.37;;
18473;SDS011;30265;52.408;13.500;2023-03-14T07:44:49;3.92;;;1.20;;
18473;SDS011;30265;52.408;13.500;2023-03-14T07:55:11;3.90;;;1.23;;
18473;SDS011;30265;52.408;13.500;2023-03-14T08:05:35;2.38;;;1.30;;
18473;SDS011;30265;52.408;13.500;2023-03-14T08:15:57;1.77;;;1.20;;
18473;SDS011;30265;52.408;13.500;2023-03-14T08:26:21;4.50;;;1.45;;
18473;SDS011;30265;52.408;13.500;2023-03-14T08:36:43;3.28;;;1.15;;
18473;SDS011;30265;52.408;13.500;2023-03-14T08:47:07;3.25;;;1.40;;
18473;SDS011;30265;52.408;13.500;2023-03-14T08:57:29;1.95;;;1.08;;
18473;SDS011;30265;52.408;13.500;2023-03-14T09:07:52;5.18;;;1.20;;
18473;SDS011;30265;52.408;13.500;2023-03-14T09:18:14;5.65;;;1.85;;
18473;SDS011;30265;52.408;13.500;2023-03-14T09:28:37;2.38;;;1.27;;
18473;SDS011;30265;52.408;13.500;2023-03-14T09:38:58;2.47;;;1.27;;
18473;SDS011;30265;52.408;13.500;2023-03-14T09:49:23;4.25;;;1.40;;
18473;SDS011;30265;52.408;13.500;2023-03-14T09:59:49;2.35;;;1.27;;
18473;SDS011;30265;52.408;13.500;2023-03-14T10:10:15;6.40;;;1.83;;
18473;SDS011;30265;52.408;13.500;2023-03-14T10:20:40;1.58;;;1.02;;
18473;SDS011;30265;52.408;13.500;2023-03-14T10:31:06;3.33;;;1.20;;
18473;SDS011;30265;52.408;13.500;2023-03-14T10:41:30;1.38;;;1.00;;
18473;SDS011;30265;52.408;13.500;2023-03-14T10:51:55;2.67;;;1.00;;
18473;SDS011;30265;52.408;13.500;2023-03-14T11:23:38;1.58;;;1.05;;
18473;SDS011;30265;52.408;13.500;2023-03-14T11:34:10;4.63;;;1.33;;
18473;SDS011;30265;52.408;13.500;2023-03-14T11:44:37;3.42;;;1.15;;
18473;SDS011;30265;52.408;13.500;2023-03-14T11:55:02;2.03;;;1.48;;
18473;SDS011;30265;52.408;13.500;2023-03-14T12:05:34;1.52;;;1.25;;
18473;SDS011;30265;52.408;13.500;2023-03-14T12:16:05;2.20;;;1.20;;
18473;SDS011;30265;52.408;13.500;2023-03-14T12:26:50;5.22;;;1.15;;
18473;SDS011;30265;52.408;13.500;2023-03-14T12:37:19;1.67;;;1.10;;
18473;SDS011;30265;52.408;13.500;2023-03-14T12:47:55;2.45;;;1.20;;
18473;SDS011;30265;52.408;13.500;2023-03-14T12:58:24;2.55;;;1.10;;
18473;SDS011;30265;52.408;13.500;2023-03-14T13:08:52;1.38;;;1.15;;
18473;SDS011;30265;52.408;13.500;2023-03-14T13:19:24;1.33;;;0.98;;
18473;SDS011;30265;52.408;13.500;2023-03-14T13:29:48;0.85;;;0.82;;
18473;SDS011;30265;52.408;13.500;2023-03-14T13:40:23;1.55;;;0.75;;
18473;SDS011;30265;52.408;13.500;2023-03-14T13:50:54;1.45;;;0.90;;
18473;SDS011;30265;52.408;13.500;2023-03-14T14:01:20;0.70;;;0.70;;
18473;SDS011;30265;52.408;13.500;2023-03-14T14:11:46;0.88;;;0.73;;
18473;SDS011;30265;52.408;13.500;2023-03-14T14:22:34;1.75;;;1.10;;
18473;SDS011;30265;52.408;13.500;2023-03-14T14:43:49;2.85;;;1.00;;
18473;SDS011;30265;52.408;13.500;2023-03-14T14:54:14;0.80;;;0.80;;
18473;SDS011;30265;52.408;13.500;2023-03-14T15:04:38;0.85;;;0.85;;
18473;SDS011;30265;52.408;13.500;2023-03-14T15:15:00;1.98;;;0.90;;
18473;SDS011;30265;52.408;13.500;2023-03-14T15:25:22;1.42;;;1.15;;
18473;SDS011;30265;52.408;13.500;2023-03-14T15:36:05;1.95;;;1.08;;
18473;SDS011;30265;52.408;13.500;2023-03-14T15:46:38;1.50;;;0.82;;
18473;SDS011;30265;52.408;13.500;2023-03-14T15:57:00;1.08;;;0.98;;
18473;SDS011;30265;52.408;13.500;2023-03-14T16:07:23;1.23;;;1.00;;
18473;SDS011;30265;52.408;13.500;2023-03-14T16:17:45;2.53;;;1.55;;
18473;SDS011;30265;52.408;13.500;2023-03-14T16:28:08;4.45;;;2.35;;
18473;SDS011;30265;52.408;13.500;2023-03-14T16:38:31;1.63;;;1.10;;
18473;SDS011;30265;52.408;13.500;2023-03-14T16:48:55;2.13;;;1.15;;
18473;SDS011;30265;52.408;13.500;2023-03-14T16:59:16;8.13;;;4.25;;
18473;SDS011;30265;52.408;13.500;2023-03-14T17:09:41;4.60;;;2.53;;
18473;SDS011;30265;52.408;13.500;2023-03-14T17:20:02;4.60;;;1.95;;
18473;SDS011;30265;52.408;13.500;2023-03-14T17:30:28;3.40;;;2.67;;
18473;SDS011;30265;52.408;13.500;2023-03-14T17:40:50;4.18;;;2.63;;
18473;SDS011;30265;52.408;13.500;2023-03-14T17:51:13;3.88;;;2.25;;
18473;SDS011;30265;52.408;13.500;2023-03-14T18:01:36;3.33;;;1.88;;
18473;SDS011;30265;52.408;13.500;2023-03-14T18:12:00;6.35;;;3.00;;
18473;SDS011;30265;52.408;13.500;2023-03-14T18:22:27;8.55;;;3.38;;
18473;SDS011;30265;52.408;13.500;2023-03-14T18:32:51;4.50;;;2.38;;
18473;SDS011;30265;52.408;13.500;2023-03-14T18:43:13;5.43;;;3.22;;
18473;SDS011;30265;52.408;13.500;2023-03-14T18:53:36;3.03;;;1.90;;
18473;SDS011;30265;52.408;13.500;2023-03-14T19:03:59;6.65;;;2.58;;
18473;SDS011;30265;52.408;13.500;2023-03-14T19:14:22;5.97;;;2.40;;
18473;SDS011;30265;52.408;13.500;2023-03-14T19:24:44;8.32;;;2.78;;
18473;SDS011;30265;52.408;13.500;2023-03-14T19:35:07;2.00;;;1.77;;
18473;SDS011;30265;52.408;13.500;2023-03-14T19:45:29;8.18;;;2.42;;
18473;SDS011;30265;52.408;13.500;2023-03-14T19:55:55;6.60;;;2.45;;
18473;SDS011;30265;52.408;13.500;2023-03-14T20:06:17;10.98;;;2.78;;
18473;SDS011;30265;52.408;13.500;2023-03-14T20:16:42;9.50;;;1.90;;
18473;SDS011;30265;52.408;13.500;2023-03-14T20:27:04;14.52;;;4.40;;
18473;SDS011;30265;52.408;13.500;2023-03-14T20:37:27;11.55;;;1.92;;
18473;SDS011;30265;52.408;13.500;2023-03-14T20:47:49;7.13;;;2.55;;
18473;SDS011;30265;52.408;13.500;2023-03-14T20:58:12;6.60;;;2.85;;
18473;SDS011;30265;52.408;13.500;2023-03-14T21:08:35;9.70;;;2.05;;
18473;SDS011;30265;52.408;13.500;2023-03-14T21:18:58;9.63;;;2.45;;
18473;SDS011;30265;52.408;13.500;2023-03-14T21:29:20;5.15;;;1.48;;
18473;SDS011;30265;52.408;13.500;2023-03-14T21:39:43;5.38;;;1.75;;
18473;SDS011;30265;52.408;13.500;2023-03-14T21:50:06;6.68;;;1.55;;
18473;SDS011;30265;52.408;13.500;2023-03-14T22:00:30;3.92;;;2.05;;
18473;SDS011;30265;52.408;13.500;2023-03-14T22:10:52;6.72;;;1.73;;
18473;SDS011;30265;52.408;13.500;2023-03-14T22:21:16;2.42;;;1.65;;
18473;SDS011;30265;52.408;13.500;2023-03-14T22:31:38;2.15;;;1.30;;
18473;SDS011;30265;52.408;13.500;2023-03-14T22:42:01;1.42;;;1.30;;
18473;SDS011;30265;52.408;13.500;2023-03-14T22:52:24;8.88;;;1.55;;
18473;SDS011;30265;52.408;13.500;2023-03-14T23:02:52;4.18;;;1.77;;
18473;SDS011;30265;52.408;13.500;2023-03-14T23:13:14;2.58;;;1.20;;
18473;SDS011;30265;52.408;13.500;2023-03-14T23:23:37;10.90;;;1.77;;
18473;SDS011;30265;52.408;13.500;2023-03-14T23:33:59;7.18;;;1.80;;
18473;SDS011;30265;52.408;13.500;2023-03-14T23:44:23;1.90;;;1.65;;
18473;SDS011;30265;52.408;13.500;2023-03-14T23:54:46;7.03;;;1.88;;
